Time;durP1;ratioP1;P1;durP2;ratioP2;P2;SDS_P1;SDS_P2;PMS_P1;PMS_P2;Temp;Humidity;BMP_temperature;BMP_pressure;BME280_temperature;BME280_humidity;BME280_pressure;Samples;Min_cycle;Max_cycle;Signal;HPM_P1;HPM_P2
2023/02/04 00:00:37;;;;;;;0.00;0.00;;;;;;;6.75;62.99;99564.34;4456018;32;34072;-86
2023/02/04 00:03:05;;;;;;;0.00;0.00;;;;;;;6.55;63.79;99562.31;4469481;32;33588;-85
2023/02/04 00:05:34;;;;;;;0.43;0.35;;;;;;;6.77;63.64;99558.13;4459976;32;33336;-85
2023/02/04 00:08:06;;;;;;;0.00;0.00;;;;;;;6.70;63.41;99561.03;4464766;32;32548;-86
2023/02/04 00:10:35;;;;;;;0.20;0.20;;;;;;;7.26;61.77;99553.03;4461345;31;32766;-86
2023/02/04 00:13:04;;;;;;;0.62;0.37;;;;;;;6.79;63.41;99550.19;4464331;31;34005;-85
2023/02/04 00:15:33;;;;;;;0.00;0.00;;;;;;;7.34;61.51;99549.22;4451579;32;34681;-87
2023/02/04 00:18:01;;;;;;;0.00;0.00;;;;;;;6.87;62.72;99558.69;4452489;32;125319;-87
2023/02/04 00:20:29;;;;;;;0.20;0.20;;;;;;;6.79;64.03;99564.22;4469984;32;33774;-87
2023/02/04 00:22:57;;;;;;;0.00;0.00;;;;;;;6.98;63.08;99558.34;4444102;32;33901;-86
2023/02/04 00:25:26;;;;;;;0.00;0.00;;;;;;;6.92;62.87;99564.66;4460772;32;33575;-84
2023/02/04 00:27:54;;;;;;;0.20;0.20;;;;;;;6.60;63.58;99561.31;4469458;32;33389;-84
2023/02/04 00:30:22;;;;;;;0.00;0.00;;;;;;;6.67;63.65;99561.97;4464494;32;33206;-85
2023/02/04 00:32:53;;;;;;;0.00;0.00;;;;;;;6.63;63.67;99565.59;4456568;32;33519;-85
2023/02/04 00:35:22;;;;;;;0.00;0.00;;;;;;;6.55;64.05;99568.47;4469521;32;34376;-85
2023/02/04 00:37:52;;;;;;;0.00;0.00;;;;;;;6.61;63.90;99568.25;4443214;32;33035;-86
2023/02/04 00:40:20;;;;;;;0.00;0.00;;;;;;;6.55;63.86;99572.81;4436668;32;33314;-86
2023/02/04 00:42:48;;;;;;;0.00;0.00;;;;;;;6.80;63.00;99565.91;4441602;32;33387;-86
2023/02/04 00:45:16;;;;;;;0.00;0.00;;;;;;;6.78;63.27;99569.47;4469316;32;33806;-86
2023/02/04 00:47:45;;;;;;;0.25;0.25;;;;;;;6.78;63.29;99567.72;4455757;32;34232;-86
2023/02/04 00:50:14;;;;;;;0.00;0.00;;;;;;;6.60;64.08;99560.44;4449333;32;33498;-86
2023/02/04 00:52:42;;;;;;;0.90;0.75;;;;;;;6.73;63.52;99553.88;4446562;32;34654;-85
2023/02/04 00:55:15;;;;;;;1.23;0.88;;;;;;;7.17;61.97;99541.94;4449768;32;32953;-85
2023/02/04 00:57:46;;;;;;;0.00;0.00;;;;;;;7.07;62.13;99545.75;4456435;32;32542;-86
2023/02/04 01:00:14;;;;;;;0.10;0.10;;;;;;;6.99;63.29;99536.44;4456422;32;34613;-86
2023/02/04 01:02:43;;;;;;;0.17;0.17;;;;;;;6.89;62.90;99547.25;4456573;32;34750;-86
2023/02/04 01:05:11;;;;;;;1.25;1.10;;;;;;;6.80;63.21;99534.44;4458204;32;34735;-85
2023/02/04 01:07:39;;;;;;;0.00;0.00;;;;;;;7.03;62.54;99527.56;4452017;32;32392;-86
2023/02/04 01:10:07;;;;;;;0.00;0.00;;;;;;;6.81;63.26;99523.00;4470265;32;33788;-85
2023/02/04 01:12:36;;;;;;;0.20;0.20;;;;;;;6.79;63.69;99527.47;4464673;32;34680;-85
2023/02/04 01:15:05;;;;;;;0.30;0.30;;;;;;;7.26;61.71;99521.50;4440415;32;33601;-85
2023/02/04 01:17:32;;;;;;;0.00;0.00;;;;;;;6.97;62.33;99530.38;4464063;32;32677;-84
2023/02/04 01:20:00;;;;;;;0.00;0.00;;;;;;;7.47;60.96;99517.28;4449828;32;33347;-84
2023/02/04 01:22:30;;;;;;;0.00;0.00;;;;;;;7.20;62.45;99519.97;4454680;32;34427;-85
2023/02/04 01:25:00;;;;;;;0.00;0.00;;;;;;;7.23;61.95;99517.22;4452131;32;31838;-84
2023/02/04 01:27:39;;;;;;;0.00;0.00;;;;;;;6.89;63.19;99525.41;4459764;32;33783;-84
2023/02/04 01:30:09;;;;;;;1.23;1.17;;;;;;;7.26;61.92;99519.72;4456456;32;34184;-84
2023/02/04 01:32:37;;;;;;;0.00;0.00;;;;;;;7.54;60.80;99505.63;4470725;32;34543;-85
2023/02/04 01:35:07;;;;;;;0.00;0.00;;;;;;;7.07;62.87;99518.66;4458032;32;33326;-85
2023/02/04 01:37:35;;;;;;;0.00;0.00;;;;;;;7.21;62.10;99523.44;4456651;32;32821;-86
2023/02/04 01:40:03;;;;;;;10.95;1.35;;;;;;;7.44;62.15;99513.84;4470634;32;34457;-86
2023/02/04 01:42:32;;;;;;;0.20;0.20;;;;;;;7.25;62.01;99520.66;4457420;32;32515;-85
2023/02/04 01:45:05;;;;;;;0.03;0.03;;;;;;;7.30;61.80;99520.50;4457207;32;34171;-86
2023/02/04 01:47:34;;;;;;;0.00;0.00;;;;;;;7.29;62.25;99518.78;4467382;32;32808;-86
2023/02/04 01:50:05;;;;;;;0.00;0.00;;;;;;;7.57;60.88;99524.78;4443996;32;33729;-85
2023/02/04 01:52:36;;;;;;;0.00;0.00;;;;;;;7.82;59.82;99523.88;4481658;32;34712;-83
2023/02/04 01:55:12;;;;;;;0.70;0.70;;;;;;;7.63;60.27;99521.06;4444457;32;33122;-84
2023/02/04 01:57:40;;;;;;;0.00;0.00;;;;;;;7.44;60.64;99534.00;4457501;32;32379;-83
2023/02/04 02:00:18;;;;;;;0.00;0.00;;;;;;;7.59;60.45;99533.44;4456432;32;33258;-84
2023/02/04 02:02:50;;;;;;;0.03;0.00;;;;;;;7.39;61.35;99523.66;4443753;32;34771;-85
2023/02/04 02:05:22;;;;;;;5.18;0.80;;;;;;;7.85;58.98;99529.91;4470388;32;33815;-84
2023/02/04 02:07:53;;;;;;;0.20;0.20;;;;;;;7.59;60.22;99532.59;4457852;32;32444;-85
2023/02/04 02:10:21;;;;;;;1.02;0.15;;;;;;;7.59;60.22;99522.94;4462515;32;32852;-85
2023/02/04 02:12:50;;;;;;;2.65;0.77;;;;;;;7.52;60.35;99528.50;4449779;32;33802;-84
2023/02/04 02:15:18;;;;;;;0.00;0.00;;;;;;;7.92;58.74;99531.38;4442553;32;34587;-85
2023/02/04 02:17:46;;;;;;;0.45;0.45;;;;;;;7.94;59.25;99532.19;4456261;32;33649;-86
2023/02/04 02:20:20;;;;;;;0.10;0.10;;;;;;;7.65;60.13;99541.13;4448561;32;33757;-85
2023/02/04 02:22:55;;;;;;;0.10;0.10;;;;;;;7.54;60.25;99539.78;4445070;32;33704;-85
2023/02/04 02:25:23;;;;;;;0.05;0.05;;;;;;;7.66;59.89;99534.09;4442383;32;33259;-85
2023/02/04 02:27:51;;;;;;;0.00;0.00;;;;;;;7.67;59.98;99523.53;4452155;32;34131;-85
2023/02/04 02:30:19;;;;;;;0.00;0.00;;;;;;;7.78;59.40;99530.16;4450294;32;33502;-85
2023/02/04 02:32:47;;;;;;;0.05;0.05;;;;;;;7.83;58.92;99526.47;4449768;32;34693;-84
2023/02/04 02:35:15;;;;;;;0.10;0.10;;;;;;;8.08;58.25;99531.66;4454071;32;33069;-85
2023/02/04 02:37:43;;;;;;;0.00;0.00;;;;;;;8.00;58.41;99527.59;4447337;32;33678;-84
2023/02/04 02:40:12;;;;;;;0.00;0.00;;;;;;;8.08;57.98;99526.41;4436926;32;33377;-85
2023/02/04 02:42:42;;;;;;;0.10;0.10;;;;;;;7.84;58.97;99519.44;4449060;32;33892;-84
2023/02/04 02:45:23;;;;;;;2.42;0.90;;;;;;;7.94;58.69;99526.94;4434944;32;32543;-83
2023/02/04 02:47:52;;;;;;;0.00;0.00;;;;;;;7.68;59.83;99512.09;4449141;32;33186;-84
2023/02/04 02:50:22;;;;;;;0.00;0.00;;;;;;;7.84;59.24;99517.66;4433351;32;32773;-83
2023/02/04 02:52:53;;;;;;;0.00;0.00;;;;;;;7.98;58.82;99518.94;4438591;32;33384;-83
2023/02/04 02:55:23;;;;;;;0.15;0.15;;;;;;;7.96;58.90;99511.94;4456745;32;34031;-84
2023/02/04 02:57:53;;;;;;;0.00;0.00;;;;;;;7.74;60.19;99510.16;4436278;32;33062;-84
2023/02/04 03:00:22;;;;;;;3.53;1.62;;;;;;;7.90;59.38;99501.66;4452066;32;33766;-84
2023/02/04 03:03:12;;;;;;;0.00;0.00;;;;;;;7.78;59.61;99507.38;4438666;32;32648;-84
2023/02/04 03:05:43;;;;;;;0.43;0.43;;;;;;;7.89;58.73;99510.47;4459154;32;33845;-84
2023/02/04 03:08:11;;;;;;;0.00;0.00;;;;;;;7.60;59.76;99508.06;4436005;32;32441;-84
2023/02/04 03:10:39;;;;;;;0.00;0.00;;;;;;;7.55;59.62;99504.72;4443194;32;33097;-84
2023/02/04 03:13:10;;;;;;;5.62;0.43;;;;;;;7.98;58.74;99513.69;4447581;32;35189;-84
2023/02/04 03:15:38;;;;;;;0.37;0.17;;;;;;;7.94;59.20;99510.28;4460759;32;34011;-84
2023/02/04 03:18:07;;;;;;;0.80;0.80;;;;;;;7.79;59.54;99509.09;4448650;32;32296;-84
2023/02/04 03:20:36;;;;;;;0.00;0.00;;;;;;;7.65;59.37;99506.13;4436927;32;32818;-84
2023/02/04 03:23:04;;;;;;;0.00;0.00;;;;;;;7.89;58.97;99510.47;4441048;32;33417;-85
2023/02/04 03:25:32;;;;;;;0.00;0.00;;;;;;;7.97;58.16;99515.41;4441619;32;34700;-84
2023/02/04 03:28:04;;;;;;;0.00;0.00;;;;;;;7.87;58.94;99512.28;4427228;32;32229;-85
2023/02/04 03:30:32;;;;;;;0.00;0.00;;;;;;;8.03;58.18;99501.22;4427919;32;33259;-85
2023/02/04 03:33:03;;;;;;;0.00;0.00;;;;;;;7.64;59.37;99494.75;4432317;32;33600;-84
2023/02/04 03:35:31;;;;;;;0.00;0.00;;;;;;;7.82;59.14;99492.34;4441623;32;32894;-84
2023/02/04 03:38:00;;;;;;;0.85;0.75;;;;;;;7.30;60.94;99489.84;4440103;32;31964;-84
2023/02/04 03:40:28;;;;;;;0.00;0.00;;;;;;;7.93;58.62;99491.03;4447278;32;33495;-84
2023/02/04 03:42:57;;;;;;;4.47;1.65;;;;;;;7.82;59.43;99492.34;4441815;32;35087;-84
2023/02/04 03:45:24;;;;;;;0.08;0.08;;;;;;;7.63;60.30;99486.91;4454552;32;33784;-84
2023/02/04 03:47:55;;;;;;;0.08;0.08;;;;;;;7.73;59.80;99490.06;4441568;32;31773;-84
2023/02/04 03:50:23;;;;;;;0.00;0.00;;;;;;;7.40;61.21;99487.75;4454254;32;34406;-84
2023/02/04 03:52:52;;;;;;;0.03;0.03;;;;;;;7.56;61.31;99490.69;4441311;32;33402;-84
2023/02/04 03:55:20;;;;;;;0.00;0.00;;;;;;;8.02;59.51;99478.44;4441584;32;32716;-85
2023/02/04 03:57:48;;;;;;;0.10;0.10;;;;;;;8.00;59.11;99480.28;4441096;32;33081;-85
2023/02/04 04:00:16;;;;;;;0.15;0.15;;;;;;;7.36;61.64;99481.75;4441747;32;34551;-85
2023/02/04 04:02:45;;;;;;;0.45;0.45;;;;;;;7.46;62.31;99477.03;4428585;32;32713;-85
2023/02/04 04:05:13;;;;;;;0.00;0.00;;;;;;;7.63;61.33;99479.03;4441265;32;33511;-84
2023/02/04 04:07:41;;;;;;;0.00;0.00;;;;;;;7.71;60.46;99482.25;4439170;32;32402;-85
2023/02/04 04:10:09;;;;;;;0.00;0.00;;;;;;;7.29;61.21;99472.38;4440933;32;32161;-84
2023/02/04 04:12:37;;;;;;;5.78;0.70;;;;;;;7.64;60.60;99478.09;4441424;32;34739;-85
2023/02/04 04:15:06;;;;;;;0.28;0.28;;;;;;;7.76;60.26;99477.66;4440708;32;34050;-85
2023/02/04 04:17:34;;;;;;;0.82;0.32;;;;;;;7.70;60.33;99462.13;4441540;32;34341;-84
2023/02/04 04:20:04;;;;;;;0.85;0.85;;;;;;;7.43;61.47;99462.22;4447493;32;32744;-84
2023/02/04 04:22:33;;;;;;;0.00;0.00;;;;;;;7.74;60.62;99462.84;4442071;32;33691;-84
2023/02/04 04:25:01;;;;;;;0.00;0.00;;;;;;;7.68;60.49;99458.69;4444339;32;32775;-85
2023/02/04 04:27:30;;;;;;;0.00;0.00;;;;;;;7.60;59.91;99455.50;4461567;32;33875;-84
2023/02/04 04:29:58;;;;;;;0.00;0.00;;;;;;;7.71;59.85;99453.34;4447516;32;33295;-84
2023/02/04 04:32:26;;;;;;;0.00;0.00;;;;;;;7.56;60.06;99453.91;4460342;32;34753;-84
2023/02/04 04:34:55;;;;;;;0.00;0.00;;;;;;;7.52;60.13;99445.28;4448293;32;33732;-84
2023/02/04 04:37:23;;;;;;;0.00;0.00;;;;;;;7.90;58.99;99438.56;4448573;32;32973;-85
2023/02/04 04:39:51;;;;;;;0.55;0.30;;;;;;;7.52;59.94;99444.41;4459008;32;33759;-84
2023/02/04 04:42:18;;;;;;;0.35;0.35;;;;;;;7.72;58.98;99448.94;4453013;32;32835;-84
2023/02/04 04:44:46;;;;;;;0.00;0.00;;;;;;;7.86;58.55;99441.38;4461610;32;33491;-84
2023/02/04 04:47:16;;;;;;;0.43;0.05;;;;;;;7.37;59.80;99435.34;4429631;32;31945;-84
2023/02/04 04:49:44;;;;;;;1.62;0.55;;;;;;;7.87;58.38;99432.56;4460091;32;34217;-84
2023/02/04 04:52:11;;;;;;;0.90;0.85;;;;;;;7.64;59.12;99415.03;4447486;32;32832;-84
2023/02/04 04:54:39;;;;;;;0.30;0.30;;;;;;;7.41;59.90;99424.66;4474829;32;34596;-86
2023/02/04 04:57:08;;;;;;;0.00;0.00;;;;;;;7.55;59.21;99412.75;4447579;32;32376;-84
2023/02/04 04:59:36;;;;;;;0.05;0.05;;;;;;;7.90;58.15;99414.91;4450735;32;32714;-85
2023/02/04 05:02:04;;;;;;;0.00;0.00;;;;;;;7.84;58.25;99409.91;4461647;32;34647;-85
2023/02/04 05:04:32;;;;;;;0.00;0.00;;;;;;;7.82;57.89;99413.50;4462337;32;34163;-85
2023/02/04 05:06:59;;;;;;;0.10;0.10;;;;;;;7.85;57.69;99414.25;4442585;32;33091;-85
2023/02/04 05:09:28;;;;;;;0.00;0.00;;;;;;;7.75;58.04;99412.88;4434831;32;32425;-86
2023/02/04 05:11:55;;;;;;;0.00;0.00;;;;;;;7.55;58.82;99410.12;4444239;32;34679;-85
2023/02/04 05:14:23;;;;;;;0.00;0.00;;;;;;;7.89;57.53;99407.09;4444759;32;34484;-86
2023/02/04 05:16:55;;;;;;;0.00;0.00;;;;;;;7.49;58.31;99400.72;4442496;32;32922;-85
2023/02/04 05:19:28;;;;;;;;;;;;;;;7.45;58.54;99399.09;4465317;32;32765;-86
2023/02/04 05:21:56;;;;;;;;;;;;;;;7.41;58.74;99403.66;4454863;32;34027;-85
2023/02/04 05:24:27;;;;;;;0.13;0.13;;;;;;;7.80;57.34;99416.19;4468805;32;33916;-83
2023/02/04 05:26:55;;;;;;;0.00;0.00;;;;;;;7.92;56.29;99412.22;4469943;32;33205;-84
2023/02/04 05:29:26;;;;;;;0.00;0.00;;;;;;;7.50;57.97;99419.97;4469496;32;34643;-86
2023/02/04 05:31:55;;;;;;;0.00;0.00;;;;;;;7.96;56.62;99411.19;4477943;32;33456;-86
2023/02/04 05:34:26;;;;;;;0.00;0.00;;;;;;;8.01;56.66;99427.63;4469580;32;32783;-87
2023/02/04 05:36:53;;;;;;;0.88;0.55;;;;;;;7.51;58.23;99429.56;4456256;32;32227;-86
2023/02/04 05:39:22;;;;;;;0.00;0.00;;;;;;;7.77;57.47;99436.47;4482807;32;33668;-86
2023/02/04 05:41:51;;;;;;;0.00;0.00;;;;;;;7.66;58.57;99444.75;4456329;32;33388;-85
2023/02/04 05:44:19;;;;;;;0.00;0.00;;;;;;;7.81;57.50;99452.06;4455907;32;32713;-85
2023/02/04 05:46:47;;;;;;;0.00;0.00;;;;;;;7.49;59.81;99461.13;4450965;32;33022;-86
2023/02/04 05:49:17;;;;;;;0.95;0.75;;;;;;;7.42;61.52;99478.91;4466552;32;35519;-85
2023/02/04 05:51:46;;;;;;;0.00;0.00;;;;;;;7.43;63.02;99485.88;4465576;32;32907;-88
2023/02/04 05:54:19;;;;;;;0.00;0.00;;;;;;;7.16;64.12;99484.22;4477806;32;33537;-85
2023/02/04 05:56:54;;;;;;;0.00;0.00;;;;;;;6.77;65.34;99495.16;4481160;32;33341;-85
2023/02/04 05:59:26;;;;;;;1.75;0.57;;;;;;;6.87;64.08;99480.81;4453809;32;34324;-85
2023/02/04 06:01:57;;;;;;;0.00;0.00;;;;;;;6.59;64.36;99493.13;4468150;32;33710;-85
2023/02/04 06:04:37;;;;;;;0.00;0.00;;;;;;;6.26;63.85;99498.53;4478341;32;33891;-84
2023/02/04 06:09:43;;;;;;;0.32;0.32;;;;;;;6.10;63.48;99507.78;4466253;32;33771;-85
2023/02/04 06:12:18;;;;;;;0.00;0.00;;;;;;;6.38;61.31;99508.66;4480184;32;32550;-84
2023/02/04 06:14:47;;;;;;;0.00;0.00;;;;;;;6.28;61.29;99507.22;4477642;32;34172;-85
2023/02/04 06:19:54;;;;;;;0.00;0.00;;;;;;;6.07;61.14;99510.47;4478758;32;33507;-84
2023/02/04 06:22:26;;;;;;;0.40;0.40;;;;;;;6.13;61.14;99519.03;4481276;31;33724;-85
2023/02/04 06:25:06;;;;;;;0.45;0.45;;;;;;;6.30;60.35;99522.91;4469623;31;35052;-85
2023/02/04 06:27:36;;;;;;;0.00;0.00;;;;;;;6.01;60.48;99519.38;4465745;31;32326;-84
2023/02/04 06:30:10;;;;;;;0.00;0.00;;;;;;;6.15;59.29;99521.59;4468196;31;32710;-85
2023/02/04 06:32:42;;;;;;;0.20;0.20;;;;;;;6.23;58.62;99517.00;4481094;31;33725;-84
2023/02/04 06:35:17;;;;;;;0.00;0.00;;;;;;;6.32;57.96;99529.81;4485079;31;33949;-84
2023/02/04 06:37:45;;;;;;;0.00;0.00;;;;;;;6.00;58.32;99524.69;4467685;31;32987;-85
2023/02/04 06:40:14;;;;;;;3.25;1.08;;;;;;;6.40;56.96;99529.56;4464161;31;33980;-84
2023/02/04 06:42:43;;;;;;;0.10;0.10;;;;;;;5.90;58.32;99540.66;4469067;31;34470;-84
2023/02/04 06:45:12;;;;;;;0.00;0.00;;;;;;;5.90;58.36;99548.50;4480567;31;34039;-84
2023/02/04 06:50:19;;;;;;;0.00;0.00;;;;;;;6.21;56.73;99546.78;4467637;31;32881;-84
2023/02/04 06:52:48;;;;;;;0.00;0.00;;;;;;;6.27;56.03;99550.09;4484326;31;33379;-84
2023/02/04 06:55:22;;;;;;;0.00;0.00;;;;;;;6.52;55.40;99562.44;4482098;31;33411;-85
2023/02/04 06:58:01;;;;;;;0.00;0.00;;;;;;;6.36;56.25;99572.53;4482245;31;34098;-84
2023/02/04 07:00:30;;;;;;;0.00;0.00;;;;;;;5.93;57.50;99578.16;4481982;31;33869;-84
2023/02/04 07:03:01;;;;;;;0.98;0.75;;;;;;;6.12;56.41;99580.25;4465256;32;33355;-84
2023/02/04 07:05:36;;;;;;;0.00;0.00;;;;;;;5.70;56.87;99595.38;4455634;31;32923;-84
2023/02/04 07:08:06;;;;;;;0.00;0.00;;;;;;;6.03;55.61;99617.19;4465632;31;33598;-85
2023/02/04 07:10:34;;;;;;;0.00;0.00;;;;;;;5.36;57.41;99611.09;4468788;31;32719;-85
2023/02/04 07:13:10;;;;;;;0.00;0.00;;;;;;;5.53;56.61;99622.00;4481094;31;32924;-84
2023/02/04 07:15:45;;;;;;;;;;;;;;;5.86;55.26;99608.91;4443576;31;32973;-85
2023/02/04 07:18:16;;;;;;;0.52;0.52;;;;;;;5.71;56.24;99594.47;4466512;31;33530;-85
2023/02/04 07:20:52;;;;;;;0.00;0.00;;;;;;;5.38;57.73;99618.03;4469731;31;33364;-84
2023/02/04 07:23:24;;;;;;;0.00;0.00;;;;;;;5.67;57.39;99613.78;4465705;32;33627;-85
2023/02/04 07:26:03;;;;;;;0.00;0.00;;;;;;;5.57;57.58;99607.94;4482353;31;34217;-84
2023/02/04 07:28:35;;;;;;;0.05;0.05;;;;;;;5.36;58.42;99619.84;4455520;31;32860;-85
2023/02/04 07:31:08;;;;;;;0.00;0.00;;;;;;;5.22;58.89;99629.78;4480522;31;33773;-84
2023/02/04 07:33:38;;;;;;;0.00;0.00;;;;;;;5.00;60.02;99639.03;4479090;31;33847;-84
2023/02/04 07:38:43;;;;;;;0.45;0.40;;;;;;;4.84;59.55;99654.22;4461025;31;33660;-84
2023/02/04 07:41:19;;;;;;;0.30;0.30;;;;;;;5.10;57.49;99656.25;4463531;32;33160;-85
2023/02/04 07:43:54;;;;;;;0.00;0.00;;;;;;;5.04;56.74;99674.72;4465218;32;34198;-85
2023/02/04 07:46:23;;;;;;;2.62;0.85;;;;;;;4.98;54.91;99667.84;4479569;31;33536;-85
2023/02/04 07:48:51;;;;;;;0.20;0.20;;;;;;;5.03;54.54;99688.66;4469096;31;33004;-85
2023/02/04 07:51:25;;;;;;;4.35;0.80;;;;;;;5.02;54.94;99687.81;4446620;31;32874;-85
2023/02/04 07:54:09;;;;;;;0.77;0.70;;;;;;;5.21;54.44;99698.72;4455716;31;33505;-85
2023/02/04 07:56:51;;;;;;;0.00;0.00;;;;;;;5.31;53.75;99692.38;4466249;31;34530;-85
2023/02/04 07:59:25;;;;;;;0.20;0.20;;;;;;;4.84;56.32;99691.72;4455712;31;31127;-85
2023/02/04 08:02:00;;;;;;;0.30;0.30;;;;;;;5.29;54.84;99707.25;4457238;31;33571;-86
2023/02/04 08:04:39;;;;;;;0.30;0.30;;;;;;;5.45;55.11;99725.22;4467589;31;34182;-85
2023/02/04 08:07:10;;;;;;;0.00;0.00;;;;;;;5.56;55.26;99731.06;4467539;31;34317;-85
2023/02/04 08:12:34;;;;;;;0.45;0.45;;;;;;;5.58;53.16;99742.37;4483808;31;33079;-85
2023/02/04 08:15:08;;;;;;;0.00;0.00;;;;;;;5.55;53.27;99739.81;4464724;31;34290;-85
2023/02/04 08:17:49;;;;;;;0.00;0.00;;;;;;;5.01;54.46;99746.28;4477813;31;33962;-85
2023/02/04 08:20:20;;;;;;;0.10;0.10;;;;;;;4.90;54.03;99756.13;4467473;31;32232;-86
2023/02/04 08:23:11;;;;;;;1.98;0.40;;;;;;;5.04;53.63;99748.84;4468866;31;32526;-86
2023/02/04 08:25:44;;;;;;;0.98;0.98;;;;;;;4.94;53.82;99773.50;4468366;31;33936;-85
2023/02/04 08:28:36;;;;;;;0.35;0.32;;;;;;;5.04;54.39;99775.03;4448824;32;34487;-85
2023/02/04 08:33:56;;;;;;;;;;;;;;;5.22;53.14;99810.41;4481748;31;34383;-85
2023/02/04 08:36:31;;;;;;;2.72;1.02;;;;;;;4.85;53.66;99795.47;4455576;31;34072;-85
2023/02/04 08:41:55;;;;;;;0.00;0.00;;;;;;;4.43;54.64;99832.91;4467038;31;32266;-84
2023/02/04 08:44:29;;;;;;;0.00;0.00;;;;;;;4.44;54.73;99818.94;4477973;31;33580;-86
2023/02/04 08:47:01;;;;;;;0.00;0.00;;;;;;;4.41;54.69;99819.84;4453930;31;33289;-85
2023/02/04 08:49:35;;;;;;;0.10;0.10;;;;;;;4.70;53.66;99827.19;4451269;31;32474;-85
2023/02/04 08:52:18;;;;;;;0.10;0.10;;;;;;;4.76;53.15;99827.06;4466566;31;33154;-86
2023/02/04 08:54:48;;;;;;;0.00;0.00;;;;;;;4.94;53.43;99838.03;4453351;31;33252;-86
2023/02/04 08:57:32;;;;;;;2.53;1.33;;;;;;;4.73;54.77;99857.63;4466234;31;34738;-86
2023/02/04 09:00:13;;;;;;;0.32;0.32;;;;;;;5.21;52.88;99854.91;4455718;31;32811;-86
2023/02/04 09:02:51;;;;;;;0.10;0.10;;;;;;;5.03;53.49;99869.25;4466324;31;33761;-87
2023/02/04 09:05:22;;;;;;;0.00;0.00;;;;;;;4.54;54.78;99862.34;4466488;31;33351;-87
2023/02/04 09:07:57;;;;;;;0.28;0.13;;;;;;;4.81;53.74;99871.44;4454285;31;33127;-87
2023/02/04 09:10:31;;;;;;;0.00;0.00;;;;;;;4.76;53.04;99855.81;4463173;31;32480;-87
2023/02/04 09:13:13;;;;;;;0.00;0.00;;;;;;;4.93;52.89;99892.09;4462434;31;32072;-88
2023/02/04 09:15:51;;;;;;;0.05;0.05;;;;;;;5.05;52.19;99901.50;4474803;31;35125;-87
2023/02/04 09:18:29;;;;;;;0.10;0.10;;;;;;;5.06;52.19;99908.44;4465231;31;35467;-88
2023/02/04 09:20:58;;;;;;;0.62;0.62;;;;;;;5.29;52.13;99908.00;4447906;31;33587;-87
2023/02/04 09:26:07;;;;;;;0.00;0.00;;;;;;;5.33;51.39;99948.94;4479562;31;32765;-87
2023/02/04 09:31:17;;;;;;;1.05;1.05;;;;;;;5.66;50.43;99955.22;4474746;31;33780;-87
2023/02/04 09:33:53;;;;;;;0.00;0.00;;;;;;;5.81;50.28;99965.38;4467896;31;31984;-87
2023/02/04 09:36:38;;;;;;;0.00;0.00;;;;;;;5.44;52.87;100003.69;4469419;31;32989;-87
2023/02/04 09:39:12;;;;;;;0.30;0.30;;;;;;;6.00;49.69;100009.56;4470567;31;33506;-88
2023/02/04 09:41:49;;;;;;;0.28;0.28;;;;;;;6.05;48.67;100002.47;4456884;32;32873;-87
2023/02/04 09:49:54;;;;;;;0.17;0.17;;;;;;;6.33;49.09;100061.25;4476470;31;37328;-87
2023/02/04 09:52:27;;;;;;;0.30;0.22;;;;;;;6.46;48.79;100076.72;4465390;31;33871;-87
2023/02/04 09:55:01;;;;;;;0.00;0.00;;;;;;;6.57;48.41;100080.84;4465765;31;32535;-87
2023/02/04 09:57:33;;;;;;;0.60;0.60;;;;;;;6.76;46.94;100081.28;4466197;31;32783;-88
2023/02/04 10:00:16;;;;;;;0.55;0.55;;;;;;;6.60;47.30;100087.78;4467502;31;33993;-87
2023/02/04 10:02:51;;;;;;;0.00;0.00;;;;;;;6.50;47.63;100092.34;4470779;31;32754;-86
2023/02/04 10:08:21;;;;;;;0.08;0.08;;;;;;;6.07;48.22;100092.41;4480535;31;35316;-87
2023/02/04 10:13:49;;;;;;;4.78;1.17;;;;;;;6.06;46.83;100109.03;4472129;31;32642;-87
2023/02/04 10:16:40;;;;;;;0.00;0.00;;;;;;;6.23;46.36;100106.94;4467184;31;31544;-88
2023/02/04 10:19:15;;;;;;;0.00;0.00;;;;;;;5.66;48.60;100122.91;4459477;31;34232;-87
2023/02/04 10:21:55;;;;;;;0.00;0.00;;;;;;;5.52;47.71;100143.25;4456913;31;34044;-87
2023/02/04 10:24:26;;;;;;;0.00;0.00;;;;;;;5.44;49.31;100145.13;4442792;32;33663;-88
2023/02/04 10:27:11;;;;;;;0.15;0.15;;;;;;;5.28;49.35;100158.47;4446772;32;33639;-87
2023/02/04 10:29:56;;;;;;;0.00;0.00;;;;;;;5.56;49.12;100160.62;4426951;32;33279;-85
2023/02/04 10:32:29;;;;;;;0.00;0.00;;;;;;;5.65;49.64;100165.72;4449895;32;34325;-87
2023/02/04 10:37:43;;;;;;;0.00;0.00;;;;;;;5.34;50.23;100165.38;4437250;32;34117;-87
2023/02/04 10:43:19;;;;;;;3.87;1.12;;;;;;;5.10;51.33;100204.13;4452179;32;33717;-88
2023/02/04 10:46:07;;;;;;;0.00;0.00;;;;;;;5.18;50.58;100208.41;4440862;32;34397;-87
2023/02/04 10:48:42;;;;;;;0.00;0.00;;;;;;;5.19;50.54;100200.50;4441691;32;34125;-87
2023/02/04 10:51:16;;;;;;;0.00;0.00;;;;;;;5.47;49.87;100210.56;4430549;32;33550;-87
2023/02/04 10:59:28;;;;;;;0.00;0.00;;;;;;;5.81;48.04;100235.28;4439546;32;33420;-85
2023/02/04 11:02:30;;;;;;;1.02;0.20;;;;;;;5.93;47.77;100233.37;4438754;32;33300;-85
2023/02/04 11:05:01;;;;;;;0.30;0.30;;;;;;;6.08;47.19;100254.09;4442865;32;34892;-89
2023/02/04 11:07:38;;;;;;;0.10;0.10;;;;;;;5.93;47.29;100262.19;4449139;32;34305;-83
2023/02/04 11:10:14;;;;;;;0.70;0.70;;;;;;;5.76;49.26;100281.66;4447498;32;33714;-87
2023/02/04 11:12:52;;;;;;;0.00;0.00;;;;;;;5.83;47.27;100288.53;4454933;32;32137;-85
2023/02/04 11:15:44;;;;;;;0.00;0.00;;;;;;;5.45;50.31;100288.25;4438664;32;33064;-87
2023/02/04 11:18:19;;;;;;;0.00;0.00;;;;;;;5.81;47.38;100295.56;4454472;32;33706;-87
2023/02/04 11:20:55;;;;;;;0.00;0.00;;;;;;;5.76;47.21;100309.62;4458423;32;33074;-85
2023/02/04 11:26:18;;;;;;;0.00;0.00;;;;;;;5.70;46.29;100322.81;4464260;32;34710;-84
2023/02/04 11:31:46;;;;;;;0.03;0.03;;;;;;;5.67;45.18;100318.50;4461966;32;33792;-84
2023/02/04 11:34:23;;;;;;;0.95;0.88;;;;;;;5.84;45.05;100334.81;4465663;32;31953;-84
2023/02/04 11:37:10;;;;;;;0.45;0.45;;;;;;;5.75;45.01;100329.72;4451271;32;34643;-84
2023/02/04 11:39:46;;;;;;;0.00;0.00;;;;;;;6.12;44.30;100334.38;4427611;32;32636;-84
2023/02/04 11:45:13;;;;;;;0.00;0.00;;;;;;;6.62;44.40;100353.62;4436786;32;33172;-85
2023/02/04 11:50:31;;;;;;;0.20;0.20;;;;;;;6.79;44.81;100359.41;4452844;32;33577;-86
2023/02/04 11:53:05;;;;;;;0.00;0.00;;;;;;;6.40;44.05;100380.22;4449923;32;33455;-85
2023/02/04 11:58:24;;;;;;;0.00;0.00;;;;;;;6.21;44.91;100397.16;4451138;32;34718;-85
2023/02/04 12:06:32;;;;;;;0.00;0.00;;;;;;;6.37;44.83;100398.66;4448224;32;32657;-84
2023/02/04 12:09:22;;;;;;;0.20;0.20;;;;;;;6.11;43.98;100400.81;4435023;32;32954;-84
2023/02/04 12:12:01;;;;;;;0.10;0.10;;;;;;;6.10;44.25;100402.59;4439893;32;33675;-84
2023/02/04 12:14:44;;;;;;;0.00;0.00;;;;;;;6.09;43.80;100413.09;4438763;32;35010;-84
2023/02/04 12:17:17;;;;;;;;;;;;;;;5.85;44.19;100415.19;4426978;32;30935;-84
2023/02/04 12:19:58;;;;;;;0.00;0.00;;;;;;;5.49;44.37;100415.69;4453628;32;34564;-83
2023/02/04 12:22:38;;;;;;;0.00;0.00;;;;;;;5.81;44.68;100447.56;4446795;32;34612;-86
2023/02/04 12:25:15;;;;;;;0.00;0.00;;;;;;;5.74;44.26;100447.63;4440503;32;32242;-86
2023/02/04 12:27:58;;;;;;;0.10;0.10;;;;;;;5.71;44.73;100448.56;4450214;32;32110;-87
2023/02/04 12:30:32;;;;;;;0.70;0.70;;;;;;;5.87;46.06;100449.22;4466893;32;33800;-86
2023/02/04 12:33:03;;;;;;;0.00;0.00;;;;;;;5.49;45.05;100457.59;4441392;32;33520;-87
2023/02/04 12:35:43;;;;;;;0.00;0.00;;;;;;;5.72;44.52;100475.62;4456767;32;33876;-87
2023/02/04 12:38:27;;;;;;;0.00;0.00;;;;;;;5.76;44.92;100486.06;4451886;32;33392;-87
2023/02/04 12:41:02;;;;;;;0.00;0.00;;;;;;;5.46;45.03;100489.03;4475038;32;34598;-88
2023/02/04 12:43:33;;;;;;;0.15;0.15;;;;;;;6.12;43.03;100486.44;4440336;32;33666;-87
2023/02/04 12:46:15;;;;;;;0.00;0.00;;;;;;;5.63;43.12;100497.56;4451380;32;33106;-88
2023/02/04 12:48:55;;;;;;;0.00;0.00;;;;;;;5.69;42.32;100513.22;4452497;32;32484;-87
2023/02/04 12:51:30;;;;;;;0.00;0.00;;;;;;;5.72;42.83;100513.19;4453481;32;33389;-87
2023/02/04 12:54:00;;;;;;;0.00;0.00;;;;;;;5.78;41.71;100520.97;4452100;32;32858;-88
2023/02/04 13:01:55;;;;;;;0.00;0.00;;;;;;;5.73;41.20;100528.00;4455455;32;33686;-87
2023/02/04 13:04:30;;;;;;;0.40;0.40;;;;;;;5.43;42.03;100547.56;4452207;32;33679;-87
2023/02/04 13:12:18;;;;;;;0.65;0.47;;;;;;;5.03;44.81;100547.09;4464052;32;33295;-88
2023/02/04 13:14:48;;;;;;;0.13;0.13;;;;;;;5.19;44.85;100553.06;4465219;32;33003;-88
2023/02/04 13:17:26;;;;;;;0.28;0.28;;;;;;;5.24;44.58;100556.50;4454938;32;33315;-88
2023/02/04 13:20:04;;;;;;;0.00;0.00;;;;;;;5.33;44.11;100557.28;4442853;32;32889;-88
2023/02/04 13:22:41;;;;;;;0.03;0.03;;;;;;;5.22;44.97;100558.25;4455647;32;33807;-88